createdAt,value
2022-11-28T00:00:54.476Z,94.20
2022-11-28T00:03:27.145Z,94.10
2022-11-28T00:06:07.557Z,94.10
2022-11-28T00:08:40.580Z,94.00
2022-11-28T00:11:15.098Z,94.00
2022-11-28T00:13:47.650Z,94.00
2022-11-28T00:16:22.736Z,94.10
2022-11-28T00:18:55.714Z,94.10
2022-11-28T00:21:28.891Z,94.10
2022-11-28T00:24:02.342Z,94.50
2022-11-28T00:26:37.543Z,94.10
2022-11-28T00:29:11.688Z,94.10
2022-11-28T00:31:44.835Z,94.20
2022-11-28T00:34:17.439Z,94.20
2022-11-28T00:36:49.892Z,94.20
2022-11-28T00:39:22.495Z,94.20
2022-11-28T00:41:55.079Z,94.20
2022-11-28T00:44:27.628Z,94.20
2022-11-28T00:47:00.145Z,94.20
2022-11-28T00:49:32.689Z,94.20
2022-11-28T00:52:05.370Z,94.10
2022-11-28T00:54:38.209Z,94.10
2022-11-28T00:57:10.758Z,94.00
2022-11-28T00:59:43.284Z,93.90
2022-11-28T01:02:15.935Z,93.90
2022-11-28T01:04:48.464Z,93.90
2022-11-28T01:07:21.067Z,93.90
2022-11-28T01:09:53.586Z,93.90
2022-11-28T01:12:26.180Z,93.90
2022-11-28T01:14:59.888Z,93.90
2022-11-28T01:17:32.411Z,93.90
2022-11-28T01:20:09.370Z,93.90
2022-11-28T01:22:42.021Z,93.80
2022-11-28T01:25:14.645Z,93.80
2022-11-28T01:27:47.256Z,93.80
2022-11-28T01:30:20.052Z,93.80
2022-11-28T01:32:53.978Z,93.80
2022-11-28T01:35:26.630Z,93.90
2022-11-28T01:37:59.316Z,93.90
2022-11-28T01:40:31.967Z,93.90
2022-11-28T01:43:04.609Z,93.90
2022-11-28T01:45:37.180Z,93.90
2022-11-28T01:48:14.042Z,93.90
2022-11-28T01:50:50.336Z,93.90
2022-11-28T01:53:23.648Z,93.90
2022-11-28T01:55:57.858Z,93.90
2022-11-28T01:58:33.228Z,93.90
2022-11-28T02:01:07.145Z,93.90
2022-11-28T02:03:48.787Z,93.90
2022-11-28T02:06:25.503Z,93.80
2022-11-28T02:08:58.091Z,93.80
2022-11-28T02:12:02.219Z,93.80
2022-11-28T02:15:07.537Z,93.70
2022-11-28T02:17:58.055Z,93.70
2022-11-28T02:20:56.531Z,93.80
2022-11-28T02:23:59.579Z,93.80
2022-11-28T02:27:19.628Z,93.80
2022-11-28T02:29:59.832Z,93.80
2022-11-28T02:32:47.273Z,93.80
2022-11-28T02:35:25.227Z,93.90
2022-11-28T02:38:10.211Z,93.90
2022-11-28T02:41:03.851Z,93.90
2022-11-28T02:44:04.057Z,93.80
2022-11-28T02:46:45.911Z,93.80
2022-11-28T02:49:33.346Z,93.80
2022-11-28T02:52:19.285Z,93.80
2022-11-28T02:54:54.912Z,93.80
2022-11-28T02:57:55.976Z,93.80
2022-11-28T03:00:33.359Z,93.80
2022-11-28T03:03:33.884Z,93.90
2022-11-28T03:06:12.333Z,93.80
2022-11-28T03:09:07.004Z,93.90
2022-11-28T03:11:51.878Z,93.80
2022-11-28T03:14:27.509Z,93.80
2022-11-28T03:17:12.462Z,93.80
2022-11-28T03:20:09.185Z,93.80
2022-11-28T03:22:54.004Z,93.80
2022-11-28T03:25:31.455Z,93.80
2022-11-28T03:28:14.825Z,93.80
2022-11-28T03:30:57.613Z,93.80
2022-11-28T03:33:34.682Z,93.80
2022-11-28T03:36:18.748Z,93.80
2022-11-28T03:38:58.555Z,93.70
2022-11-28T03:41:43.030Z,93.80
2022-11-28T03:44:27.402Z,93.80
2022-11-28T03:47:02.532Z,93.80
2022-11-28T03:49:42.376Z,93.80
2022-11-28T03:52:23.395Z,93.70
2022-11-28T03:55:11.746Z,93.70
2022-11-28T03:58:23.182Z,93.70
2022-11-28T04:01:10.265Z,93.70
2022-11-28T04:03:58.767Z,93.70
2022-11-28T04:06:44.025Z,93.70
2022-11-28T04:09:22.291Z,93.70
2022-11-28T04:12:00.333Z,93.80
2022-11-28T04:14:40.196Z,93.80
2022-11-28T04:17:26.906Z,93.70
2022-11-28T04:20:08.066Z,93.70
2022-11-28T04:22:53.107Z,93.70
2022-11-28T04:25:29.003Z,93.70
2022-11-28T04:28:12.726Z,93.80
2022-11-28T04:30:48.085Z,93.70
2022-11-28T04:33:24.371Z,93.70
2022-11-28T04:35:57.664Z,93.70
2022-11-28T04:38:31.866Z,93.70
2022-11-28T04:41:15.157Z,93.70
2022-11-28T04:43:57.530Z,93.70
2022-11-28T04:46:45.191Z,93.70
2022-11-28T04:49:17.865Z,93.70
2022-11-28T04:52:10.258Z,93.80
2022-11-28T04:54:52.388Z,93.70
2022-11-28T04:57:35.438Z,93.70
2022-11-28T05:00:14.299Z,93.70
2022-11-28T05:02:50.027Z,93.70
2022-11-28T05:05:25.528Z,93.70
2022-11-28T05:07:59.888Z,93.80
2022-11-28T05:10:32.493Z,93.80
2022-11-28T05:13:05.088Z,94.20
2022-11-28T05:15:37.684Z,93.80
2022-11-28T05:18:10.482Z,93.80
2022-11-28T05:20:43.658Z,93.80
2022-11-28T05:23:16.168Z,93.70
2022-11-28T05:25:48.704Z,93.70
2022-11-28T05:28:21.260Z,93.70
2022-11-28T05:30:58.498Z,93.70
2022-11-28T05:33:32.146Z,93.70
2022-11-28T05:36:09.922Z,93.80
2022-11-28T05:38:45.662Z,93.80
2022-11-28T05:41:22.389Z,93.80
2022-11-28T05:43:56.229Z,93.80
2022-11-28T05:46:29.925Z,93.80
2022-11-28T05:49:02.766Z,93.80
2022-11-28T05:51:35.271Z,93.80
2022-11-28T05:54:07.936Z,93.80
2022-11-28T05:56:42.478Z,93.80
2022-11-28T05:59:15.328Z,93.80
2022-11-28T06:01:47.854Z,93.70
2022-11-28T06:04:20.421Z,93.70
2022-11-28T06:06:53.423Z,93.70
2022-11-28T06:09:26.406Z,93.80
2022-11-28T06:11:58.850Z,93.80
2022-11-28T06:14:31.501Z,93.80
2022-11-28T06:17:04.106Z,93.80
2022-11-28T06:19:36.746Z,93.90
2022-11-28T06:22:10.534Z,93.90
2022-11-28T06:24:43.038Z,93.90
2022-11-28T06:27:15.492Z,93.90
2022-11-28T06:29:48.009Z,93.90
2022-11-28T06:32:22.207Z,93.90
2022-11-28T06:34:54.969Z,93.90
2022-11-28T06:37:28.232Z,94.10
2022-11-28T06:40:00.805Z,94.10
2022-11-28T06:42:36.641Z,94.30
2022-11-28T06:45:09.796Z,94.40
2022-11-28T06:47:42.338Z,94.40
2022-11-28T06:50:15.047Z,94.40
2022-11-28T06:52:47.716Z,94.50
2022-11-28T06:55:20.499Z,94.70
2022-11-28T06:57:53.012Z,94.80
2022-11-28T07:00:25.825Z,94.80
2022-11-28T07:02:58.942Z,94.90
2022-11-28T07:05:31.521Z,94.90
2022-11-28T07:08:04.225Z,94.80
2022-11-28T07:10:37.199Z,94.90
2022-11-28T07:13:09.878Z,94.90
2022-11-28T07:15:49.802Z,94.90
2022-11-28T07:18:22.411Z,94.90
2022-11-28T07:20:54.942Z,94.90
2022-11-28T07:23:27.709Z,94.90
2022-11-28T07:26:02.370Z,94.90
2022-11-28T07:28:35.724Z,94.90
2022-11-28T07:31:11.115Z,94.80
2022-11-28T07:33:46.817Z,94.80
2022-11-28T07:36:24.877Z,94.80
2022-11-28T07:39:00.338Z,94.70
2022-11-28T07:41:32.896Z,94.60
2022-11-28T07:44:05.739Z,94.60
2022-11-28T07:46:40.128Z,94.60
2022-11-28T07:49:14.106Z,94.40
2022-11-28T07:51:46.701Z,94.40
2022-11-28T07:54:21.782Z,94.20
2022-11-28T07:57:12.570Z,94.20
2022-11-28T07:59:46.051Z,94.20
2022-11-28T08:02:19.056Z,94.00
2022-11-28T08:04:55.123Z,93.90
2022-11-28T08:07:28.107Z,93.90
2022-11-28T08:10:00.769Z,93.70
2022-11-28T08:12:33.344Z,93.60
2022-11-28T08:15:06.412Z,93.60
2022-11-28T08:17:39.039Z,93.60
2022-11-28T08:20:11.940Z,93.50
2022-11-28T08:22:44.610Z,93.40
2022-11-28T08:25:17.286Z,93.40
2022-11-28T08:27:49.930Z,93.30
2022-11-28T08:30:23.306Z,93.30
2022-11-28T08:32:56.150Z,93.20
2022-11-28T08:35:28.768Z,93.10
2022-11-28T08:38:02.151Z,93.00
2022-11-28T08:40:34.890Z,92.90
2022-11-28T08:43:08.351Z,92.80
2022-11-28T08:45:40.964Z,92.80
2022-11-28T08:48:13.658Z,92.70
2022-11-28T08:50:50.009Z,92.70
2022-11-28T08:53:23.067Z,92.60
2022-11-28T08:55:56.061Z,92.50
2022-11-28T08:58:28.879Z,92.50
2022-11-28T09:01:01.523Z,92.50
2022-11-28T09:03:34.145Z,92.30
2022-11-28T09:06:06.954Z,92.30
2022-11-28T09:08:39.995Z,92.20
2022-11-28T09:11:15.492Z,92.20
2022-11-28T09:13:48.717Z,92.10
2022-11-28T09:16:21.321Z,92.20
2022-11-28T09:18:55.378Z,92.50
2022-11-28T09:21:27.929Z,92.30
2022-11-28T09:24:00.454Z,92.20
2022-11-28T09:26:33.568Z,92.00
2022-11-28T09:29:05.922Z,91.70
2022-11-28T09:31:41.951Z,91.90
2022-11-28T09:34:17.182Z,91.90
2022-11-28T09:36:50.303Z,92.00
2022-11-28T09:39:22.745Z,91.70
2022-11-28T09:42:05.053Z,91.90
2022-11-28T09:44:50.836Z,91.50
2022-11-28T09:47:32.424Z,91.30
2022-11-28T09:50:10.868Z,91.10
2022-11-28T09:53:09.423Z,91.20
2022-11-28T09:55:52.846Z,91.10
2022-11-28T09:58:28.627Z,91.10
2022-11-28T10:01:06.397Z,91.40
2022-11-28T10:04:20.627Z,91.20
2022-11-28T10:07:17.245Z,91.00
2022-11-28T10:10:13.334Z,90.80
2022-11-28T10:13:07.398Z,90.80
2022-11-28T10:16:21.352Z,90.80
2022-11-28T10:19:03.831Z,90.80
2022-11-28T10:21:43.488Z,90.80
2022-11-28T10:24:35.573Z,90.70
2022-11-28T10:27:12.876Z,90.50
2022-11-28T10:30:03.226Z,90.60
2022-11-28T10:32:42.842Z,90.40
2022-11-28T10:35:42.951Z,90.50
2022-11-28T10:38:17.386Z,90.40
2022-11-28T10:41:17.429Z,90.30
2022-11-28T10:44:03.361Z,90.10
2022-11-28T10:46:38.902Z,90.10
2022-11-28T10:49:30.175Z,90.10
2022-11-28T10:52:21.573Z,89.60
2022-11-28T10:55:24.468Z,89.30
2022-11-28T10:58:20.061Z,89.30
2022-11-28T11:00:58.232Z,89.00
2022-11-28T11:03:36.079Z,88.90
2022-11-28T11:06:09.095Z,88.80
2022-11-28T11:08:42.088Z,88.60
2022-11-28T11:11:30.598Z,88.50
2022-11-28T11:14:08.506Z,88.00
2022-11-28T11:16:52.822Z,88.10
2022-11-28T11:19:30.202Z,87.90
2022-11-28T11:22:29.269Z,87.90
2022-11-28T11:25:14.588Z,87.50
2022-11-28T11:27:58.518Z,87.60
2022-11-28T11:30:42.852Z,87.40
2022-11-28T11:33:18.033Z,87.20
2022-11-28T11:35:50.676Z,87.00
2022-11-28T11:38:23.545Z,86.90
2022-11-28T11:40:56.357Z,86.80
2022-11-28T11:43:31.288Z,86.60
2022-11-28T11:46:13.219Z,86.40
2022-11-28T11:48:52.201Z,85.90
2022-11-28T11:51:37.953Z,86.00
2022-11-28T11:54:16.722Z,85.30
2022-11-28T11:57:00.627Z,85.20
2022-11-28T11:59:53.489Z,85.30
2022-11-28T12:02:38.677Z,85.10
2022-11-28T12:05:18.474Z,84.60
2022-11-28T12:07:51.096Z,84.40
2022-11-28T12:10:27.017Z,84.20
2022-11-28T12:12:59.574Z,83.90
2022-11-28T12:15:45.863Z,84.00
2022-11-28T12:18:18.468Z,83.80
2022-11-28T12:21:07.252Z,84.10
2022-11-28T12:24:02.424Z,83.90
2022-11-28T12:26:51.234Z,83.50
2022-11-28T12:29:29.591Z,83.50
2022-11-28T12:32:13.873Z,83.30
2022-11-28T12:34:49.280Z,83.10
2022-11-28T12:38:08.993Z,83.20
2022-11-28T12:40:34.986Z,82.60
2022-11-28T12:43:27.046Z,82.80
2022-11-28T12:46:35.480Z,82.50
2022-11-28T12:49:39.588Z,82.50
2022-11-28T12:52:39.731Z,82.50
2022-11-28T12:55:33.637Z,82.50
2022-11-28T12:58:22.521Z,82.50
2022-11-28T13:01:43.067Z,82.40
2022-11-28T13:04:32.678Z,82.20
2022-11-28T13:07:26.485Z,82.10
2022-11-28T13:10:18.259Z,82.20
2022-11-28T13:13:18.058Z,82.10
2022-11-28T13:16:23.616Z,81.90
2022-11-28T13:19:10.929Z,81.90
2022-11-28T13:21:53.304Z,82.00
2022-11-28T13:24:28.733Z,81.80
2022-11-28T13:27:16.689Z,81.90
2022-11-28T13:29:51.978Z,81.80
2022-11-28T13:32:35.783Z,81.90
2022-11-28T13:35:14.462Z,81.60
2022-11-28T13:41:02.322Z,81.80
2022-11-28T13:43:46.458Z,81.70
2022-11-28T13:46:19.939Z,81.70
2022-11-28T13:49:14.349Z,81.50
2022-11-28T13:51:48.528Z,81.30
2022-11-28T13:54:20.773Z,81.10
2022-11-28T13:57:37.655Z,82.30
2022-11-28T14:00:19.609Z,81.30
2022-11-28T14:02:55.213Z,80.90
2022-11-28T14:05:41.555Z,80.90
2022-11-28T14:08:30.644Z,80.60
2022-11-28T14:11:27.831Z,80.60
2022-11-28T14:14:23.122Z,80.40
2022-11-28T14:17:14.037Z,80.40
2022-11-28T14:19:59.860Z,80.30
2022-11-28T14:22:54.493Z,80.30
2022-11-28T14:25:48.809Z,80.30
2022-11-28T14:28:21.329Z,80.40
2022-11-28T14:31:13.982Z,80.00
2022-11-28T14:33:47.930Z,79.90
2022-11-28T14:36:34.368Z,79.80
2022-11-28T14:39:29.824Z,79.60
2022-11-28T14:42:05.380Z,79.80
2022-11-28T14:45:04.800Z,79.60
2022-11-28T14:47:43.168Z,79.20
2022-11-28T14:50:17.996Z,79.20
2022-11-28T14:53:11.089Z,79.30
2022-11-28T14:55:44.788Z,79.30
2022-11-28T14:58:17.778Z,79.80
2022-11-28T15:00:56.476Z,79.50
2022-11-28T15:03:37.870Z,79.40
2022-11-28T15:06:19.928Z,79.10
2022-11-28T15:09:14.727Z,78.90
2022-11-28T15:12:05.331Z,78.90
2022-11-28T15:14:41.066Z,78.80
2022-11-28T15:17:15.315Z,78.80
2022-11-28T15:19:50.056Z,78.80
2022-11-28T15:22:33.316Z,78.70
2022-11-28T15:25:21.385Z,78.40
2022-11-28T15:27:55.668Z,78.40
2022-11-28T15:30:28.416Z,78.20
2022-11-28T15:33:01.316Z,77.60
2022-11-28T15:35:33.825Z,77.30
2022-11-28T15:38:06.569Z,77.50
2022-11-28T15:40:39.244Z,77.50
2022-11-28T15:43:14.717Z,77.70
2022-11-28T15:45:58.942Z,77.70
2022-11-28T15:48:40.468Z,77.70
2022-11-28T15:51:30.753Z,77.70
2022-11-28T15:54:23.495Z,77.60
2022-11-28T15:57:00.491Z,77.80
2022-11-28T15:59:33.989Z,77.70
2022-11-28T16:02:31.480Z,77.50
2022-11-28T16:05:09.144Z,77.30
2022-11-28T16:07:43.980Z,77.40
2022-11-28T16:10:26.748Z,77.40
2022-11-28T16:13:04.975Z,77.20
2022-11-28T16:15:38.498Z,77.20
2022-11-28T16:18:15.612Z,77.30
2022-11-28T16:20:48.664Z,77.10
2022-11-28T16:23:33.224Z,77.10
2022-11-28T16:26:22.442Z,76.70
2022-11-28T16:29:03.753Z,76.80
2022-11-28T16:31:36.648Z,76.70
2022-11-28T16:34:14.071Z,76.70
2022-11-28T16:36:50.273Z,76.70
2022-11-28T16:39:23.963Z,76.80
2022-11-28T16:42:12.998Z,76.70
2022-11-28T16:44:45.604Z,76.50
2022-11-28T16:47:30.718Z,76.60
2022-11-28T16:50:17.387Z,76.50
2022-11-28T16:52:58.148Z,76.40
2022-11-28T16:55:30.737Z,76.50
2022-11-28T16:58:18.212Z,76.60
2022-11-28T17:00:59.574Z,76.40
2022-11-28T17:03:47.422Z,76.40
2022-11-28T17:06:26.250Z,76.30
2022-11-28T17:08:58.935Z,76.40
2022-11-28T17:11:36.314Z,76.40
2022-11-28T17:14:14.252Z,76.40
2022-11-28T17:16:46.808Z,76.30
2022-11-28T17:19:19.342Z,76.30
2022-11-28T17:21:58.198Z,76.20
2022-11-28T17:24:34.783Z,76.00
2022-11-28T17:27:10.118Z,76.00
2022-11-28T17:29:43.850Z,76.00
2022-11-28T17:32:16.961Z,76.00
2022-11-28T17:34:49.676Z,75.90
2022-11-28T17:37:22.233Z,75.90
2022-11-28T17:40:13.203Z,75.90
2022-11-28T17:42:46.298Z,76.00
2022-11-28T17:45:22.241Z,76.00
2022-11-28T17:47:54.726Z,76.00
2022-11-28T17:50:27.717Z,76.00
2022-11-28T17:53:00.357Z,76.00
2022-11-28T17:55:34.083Z,76.10
2022-11-28T17:58:07.519Z,76.00
2022-11-28T18:00:40.587Z,76.00
2022-11-28T18:03:14.319Z,76.00
2022-11-28T18:05:49.541Z,76.10
2022-11-28T18:08:22.579Z,76.00
2022-11-28T18:11:08.117Z,75.90
2022-11-28T18:13:42.709Z,75.70
2022-11-28T18:16:18.248Z,75.80
2022-11-28T18:18:51.123Z,75.60
2022-11-28T18:21:27.009Z,75.70
2022-11-28T18:23:59.739Z,75.60
2022-11-28T18:26:32.453Z,75.40
2022-11-28T18:29:05.371Z,75.40
2022-11-28T18:31:38.120Z,75.40
2022-11-28T18:34:11.586Z,75.30
2022-11-28T18:36:45.482Z,75.20
2022-11-28T18:39:18.053Z,75.30
2022-11-28T18:41:50.611Z,75.30
2022-11-28T18:44:23.771Z,75.40
2022-11-28T18:46:56.328Z,75.70
2022-11-28T18:49:28.935Z,75.50
2022-11-28T18:52:01.577Z,75.60
2022-11-28T18:54:34.527Z,75.60
2022-11-28T18:57:09.267Z,75.60
2022-11-28T18:59:46.172Z,75.60
2022-11-28T19:02:22.731Z,75.50
2022-11-28T19:04:55.728Z,75.50
2022-11-28T19:07:28.396Z,75.50
2022-11-28T19:10:01.035Z,75.50
2022-11-28T19:12:33.853Z,75.40
2022-11-28T19:15:06.890Z,75.40
2022-11-28T19:17:39.578Z,75.40
2022-11-28T19:20:26.302Z,75.40
2022-11-28T19:22:59.128Z,75.40
2022-11-28T19:25:32.921Z,75.30
2022-11-28T19:28:05.588Z,75.20
2022-11-28T19:30:38.163Z,75.60
2022-11-28T19:33:11.136Z,75.40
2022-11-28T19:35:43.814Z,75.30
2022-11-28T19:38:16.660Z,75.40
2022-11-28T19:40:49.255Z,75.40
2022-11-28T19:43:21.995Z,75.30
2022-11-28T19:45:58.351Z,75.20
2022-11-28T19:48:32.244Z,75.00
2022-11-28T19:51:06.261Z,75.00
2022-11-28T19:53:41.742Z,75.00
2022-11-28T19:56:17.576Z,74.90
2022-11-28T19:58:50.422Z,74.80
2022-11-28T20:01:24.822Z,74.80
2022-11-28T20:04:00.023Z,74.80
2022-11-28T20:06:34.234Z,74.80
2022-11-28T20:09:10.956Z,74.80
2022-11-28T20:11:46.895Z,74.80
2022-11-28T20:14:19.793Z,74.80
2022-11-28T20:16:52.630Z,74.90
2022-11-28T20:19:25.289Z,74.80
2022-11-28T20:21:58.888Z,74.80
2022-11-28T20:24:31.609Z,74.80
2022-11-28T20:27:04.289Z,74.90
2022-11-28T20:29:36.887Z,74.90
2022-11-28T20:32:10.139Z,74.80
2022-11-28T20:34:42.845Z,74.80
2022-11-28T20:37:15.603Z,74.80
2022-11-28T20:39:48.264Z,74.80
2022-11-28T20:42:21.222Z,74.80
2022-11-28T20:44:53.788Z,74.80
2022-11-28T20:47:26.457Z,74.80
2022-11-28T20:49:58.916Z,74.80
2022-11-28T20:52:31.530Z,74.90
2022-11-28T20:55:04.152Z,75.00
2022-11-28T20:57:36.908Z,76.00
2022-11-28T21:00:09.832Z,75.10
2022-11-28T21:02:42.435Z,75.10
2022-11-28T21:05:15.027Z,75.20
2022-11-28T21:07:47.773Z,75.10
2022-11-28T21:10:20.346Z,75.10
2022-11-28T21:12:52.957Z,75.10
2022-11-28T21:15:26.496Z,75.10
2022-11-28T21:17:59.056Z,75.20
2022-11-28T21:20:31.612Z,75.10
2022-11-28T21:23:04.158Z,75.20
2022-11-28T21:25:37.835Z,75.10
2022-11-28T21:28:11.433Z,75.10
2022-11-28T21:30:46.468Z,75.20
2022-11-28T21:33:19.027Z,75.00
2022-11-28T21:35:51.580Z,75.10
2022-11-28T21:38:25.266Z,75.20
2022-11-28T21:40:59.488Z,75.20
2022-11-28T21:43:32.111Z,75.10
2022-11-28T21:46:06.073Z,75.20
2022-11-28T21:48:40.152Z,75.10
2022-11-28T21:51:22.658Z,75.10
2022-11-28T21:53:57.694Z,75.10
2022-11-28T21:56:30.365Z,75.20
2022-11-28T21:59:04.704Z,75.20
2022-11-28T22:01:37.189Z,75.10
2022-11-28T22:04:11.264Z,75.30
2022-11-28T22:06:44.875Z,75.20
2022-11-28T22:09:17.857Z,75.20
2022-11-28T22:11:50.364Z,75.40
2022-11-28T22:14:22.925Z,75.30
2022-11-28T22:16:55.578Z,75.30
2022-11-28T22:19:28.222Z,75.40
2022-11-28T22:22:00.852Z,75.30
2022-11-28T22:24:33.634Z,75.30
2022-11-28T22:27:06.358Z,75.30
2022-11-28T22:29:39.019Z,75.40
2022-11-28T22:32:11.806Z,75.30
2022-11-28T22:34:45.251Z,75.40
2022-11-28T22:37:18.252Z,75.40
2022-11-28T22:39:51.048Z,75.40
2022-11-28T22:42:24.640Z,75.40
2022-11-28T22:44:57.381Z,75.40
2022-11-28T22:47:29.998Z,75.50
2022-11-28T22:50:02.698Z,75.50
2022-11-28T22:52:35.243Z,75.50
2022-11-28T22:55:07.908Z,76.30
2022-11-28T22:57:40.528Z,75.50
2022-11-28T23:00:13.651Z,75.50
2022-11-28T23:02:46.531Z,75.50
2022-11-28T23:05:19.152Z,75.60
2022-11-28T23:07:51.809Z,75.60
2022-11-28T23:10:24.527Z,75.60
2022-11-28T23:12:57.085Z,75.60
2022-11-28T23:15:30.281Z,75.60
2022-11-28T23:18:02.858Z,75.70
2022-11-28T23:20:35.385Z,75.60
2022-11-28T23:23:08.194Z,75.60
2022-11-28T23:25:40.885Z,75.60
2022-11-28T23:28:13.777Z,75.50
2022-11-28T23:30:46.364Z,75.50
2022-11-28T23:33:19.046Z,75.50
2022-11-28T23:35:51.660Z,75.50
2022-11-28T23:38:24.315Z,75.50
2022-11-28T23:40:57.445Z,75.50
2022-11-28T23:43:30.096Z,75.40
2022-11-28T23:46:02.836Z,75.40
2022-11-28T23:48:35.597Z,75.40
2022-11-28T23:51:08.700Z,75.40
2022-11-28T23:53:42.224Z,75.50
2022-11-28T23:56:26.255Z,75.50
2022-11-28T23:59:01.683Z,75.50
